createdAt,value
2022-11-26T05:00:41.984Z,9.60
2022-11-26T05:03:10.401Z,9.20
2022-11-26T05:05:38.835Z,9.40
2022-11-26T05:08:07.935Z,9.30
2022-11-26T05:10:36.390Z,9.10
2022-11-26T05:13:04.623Z,9.40
2022-11-26T05:15:32.972Z,9.40
2022-11-26T05:18:02.649Z,9.40
2022-11-26T05:20:31.259Z,9.20
2022-11-26T05:22:59.825Z,9.30
2022-11-26T05:25:28.023Z,9.40
2022-11-26T05:27:56.150Z,9.60
2022-11-26T05:30:24.591Z,9.60
2022-11-26T05:32:52.819Z,9.50
2022-11-26T05:35:22.400Z,9.80
2022-11-26T05:37:50.811Z,9.60
2022-11-26T05:40:19.165Z,9.40
2022-11-26T05:42:47.447Z,9.30
2022-11-26T05:45:16.753Z,9.40
2022-11-26T05:47:44.983Z,9.30
2022-11-26T05:50:14.766Z,9.40
2022-11-26T05:52:44.423Z,9.30
2022-11-26T05:55:12.603Z,9.10
2022-11-26T05:57:40.705Z,9.20
2022-11-26T06:00:10.998Z,9.30
2022-11-26T06:02:39.799Z,9.50
2022-11-26T06:05:09.922Z,9.10
2022-11-26T06:07:43.277Z,9.10
2022-11-26T06:10:15.312Z,9.30
2022-11-26T06:12:43.659Z,9.20
2022-11-26T06:15:12.515Z,9.10
2022-11-26T06:17:40.758Z,9.00
2022-11-26T06:20:10.668Z,9.10
2022-11-26T06:22:39.463Z,9.00
2022-11-26T06:25:10.571Z,9.10
2022-11-26T06:27:41.097Z,9.20
2022-11-26T06:30:12.268Z,9.10
2022-11-26T06:32:40.494Z,9.20
2022-11-26T06:35:09.680Z,9.30
2022-11-26T06:37:37.846Z,9.50
2022-11-26T06:40:07.876Z,9.40
2022-11-26T06:42:36.095Z,9.30
2022-11-26T06:45:06.654Z,9.30
2022-11-26T06:47:34.804Z,9.10
2022-11-26T06:50:07.797Z,9.20
2022-11-26T06:52:38.889Z,9.10
2022-11-26T06:55:08.896Z,9.50
2022-11-26T06:57:37.382Z,9.30
2022-11-26T07:00:09.247Z,9.40
2022-11-26T07:02:39.087Z,9.70
2022-11-26T07:05:07.654Z,9.50
2022-11-26T07:07:38.902Z,9.60
2022-11-26T07:10:09.312Z,9.20
2022-11-26T07:12:37.501Z,9.50
2022-11-26T07:15:08.583Z,9.30
2022-11-26T07:17:36.737Z,9.50
2022-11-26T07:20:06.614Z,9.60
2022-11-26T07:22:36.939Z,9.40
2022-11-26T07:25:12.129Z,9.30
2022-11-26T07:27:41.212Z,9.30
2022-11-26T07:30:12.776Z,9.30
2022-11-26T07:32:41.593Z,9.30
2022-11-26T07:35:09.927Z,9.50
2022-11-26T07:37:38.071Z,9.50
2022-11-26T07:40:08.401Z,9.70
2022-11-26T07:42:36.882Z,9.30
2022-11-26T07:45:05.783Z,9.50
2022-11-26T07:47:35.768Z,9.30
2022-11-26T07:50:04.884Z,9.50
2022-11-26T07:52:33.044Z,9.50
2022-11-26T07:55:01.530Z,9.20
2022-11-26T07:57:30.191Z,9.30
2022-11-26T07:59:58.404Z,9.40
2022-11-26T08:02:26.691Z,9.80
2022-11-26T08:04:56.312Z,9.80
2022-11-26T08:07:29.194Z,10.00
2022-11-26T08:09:58.153Z,9.90
2022-11-26T08:12:27.018Z,10.10
2022-11-26T08:14:55.213Z,10.00
2022-11-26T08:17:23.359Z,9.90
2022-11-26T08:19:51.576Z,9.80
2022-11-26T08:22:21.132Z,10.10
2022-11-26T08:24:50.258Z,10.20
2022-11-26T08:27:18.539Z,10.30
2022-11-26T08:29:46.670Z,10.60
2022-11-26T08:32:14.837Z,10.50
2022-11-26T08:34:43.686Z,10.90
2022-11-26T08:37:11.868Z,10.60
2022-11-26T08:39:41.506Z,11.00
2022-11-26T08:42:09.995Z,10.90
2022-11-26T08:44:38.422Z,10.30
2022-11-26T08:47:06.759Z,10.40
2022-11-26T08:49:35.276Z,10.40
2022-11-26T08:52:03.480Z,10.40
2022-11-26T08:54:31.695Z,10.50
2022-11-26T08:57:01.179Z,10.70
2022-11-26T08:59:29.344Z,10.30
2022-11-26T09:01:57.979Z,10.30
2022-11-26T09:04:26.137Z,10.40
2022-11-26T09:06:54.320Z,10.60
2022-11-26T09:09:22.475Z,10.40
2022-11-26T09:11:55.039Z,10.20
2022-11-26T09:14:28.031Z,10.50
2022-11-26T09:16:58.420Z,10.20
2022-11-26T09:19:27.004Z,10.50
2022-11-26T09:21:55.804Z,10.60
2022-11-26T09:24:24.171Z,10.80
2022-11-26T09:26:52.918Z,10.60
2022-11-26T09:29:24.489Z,10.90
2022-11-26T09:32:23.621Z,11.20
2022-11-26T09:34:41.839Z,11.10
2022-11-26T09:37:10.328Z,11.30
2022-11-26T09:39:38.534Z,11.00
2022-11-26T09:42:09.879Z,11.10
2022-11-26T09:45:00.632Z,10.80
2022-11-26T09:47:36.711Z,10.80
2022-11-26T09:50:24.479Z,11.20
2022-11-26T09:52:58.441Z,10.90
2022-11-26T09:55:31.736Z,11.20
2022-11-26T09:58:13.062Z,11.20
2022-11-26T10:00:46.498Z,10.70
2022-11-26T10:03:17.789Z,10.80
2022-11-26T10:06:02.524Z,10.10
2022-11-26T10:09:04.802Z,10.30
2022-11-26T10:11:38.389Z,10.50
2022-11-26T10:14:28.895Z,10.00
2022-11-26T10:17:20.175Z,10.00
2022-11-26T10:20:19.532Z,10.10
2022-11-26T10:22:57.181Z,10.00
2022-11-26T10:25:31.822Z,10.40
2022-11-26T10:28:02.231Z,10.40
2022-11-26T10:30:32.761Z,10.30
2022-11-26T10:33:08.206Z,10.40
2022-11-26T10:35:38.766Z,10.30
2022-11-26T10:38:06.903Z,10.60
2022-11-26T10:40:35.128Z,10.50
2022-11-26T10:43:14.896Z,10.50
2022-11-26T10:45:45.577Z,10.60
2022-11-26T10:48:25.730Z,10.70
2022-11-26T10:51:06.112Z,10.50
2022-11-26T10:53:56.170Z,10.30
2022-11-26T10:56:33.348Z,10.50
2022-11-26T10:59:06.928Z,10.90
2022-11-26T11:01:38.094Z,10.80
2022-11-26T11:04:26.915Z,10.20
2022-11-26T11:06:55.970Z,10.10
2022-11-26T11:09:32.298Z,10.20
2022-11-26T11:12:22.842Z,9.90
2022-11-26T11:14:55.368Z,9.80
2022-11-26T11:17:34.773Z,10.40
2022-11-26T11:20:27.985Z,10.20
2022-11-26T11:23:21.151Z,10.10
2022-11-26T11:26:01.211Z,10.00
2022-11-26T11:28:33.882Z,10.10
2022-11-26T11:31:11.532Z,10.10
2022-11-26T11:33:40.285Z,10.50
2022-11-26T11:36:25.998Z,10.40
2022-11-26T11:38:56.987Z,10.50
2022-11-26T11:41:33.792Z,10.20
2022-11-26T11:44:14.443Z,10.30
2022-11-26T11:47:22.560Z,10.20
2022-11-26T11:50:17.329Z,10.50
2022-11-26T11:53:05.285Z,10.90
2022-11-26T11:56:02.686Z,10.80
2022-11-26T11:59:01.871Z,10.60
2022-11-26T12:02:05.068Z,10.80
2022-11-26T12:05:02.682Z,11.30
2022-11-26T12:07:39.821Z,10.90
2022-11-26T12:10:23.881Z,10.80
2022-11-26T12:12:57.795Z,11.10
2022-11-26T12:15:31.633Z,11.70
2022-11-26T12:18:07.950Z,11.70
2022-11-26T12:20:44.184Z,12.10
2022-11-26T12:23:30.511Z,11.70
2022-11-26T12:26:11.856Z,11.40
2022-11-26T12:28:53.279Z,11.70
2022-11-26T12:31:31.767Z,11.00
2022-11-26T12:34:08.737Z,11.20
2022-11-26T12:36:46.586Z,11.20
2022-11-26T12:39:28.285Z,11.90
2022-11-26T12:42:05.942Z,12.00
2022-11-26T12:44:40.828Z,11.80
2022-11-26T12:47:20.648Z,12.10
2022-11-26T12:50:06.486Z,11.40
2022-11-26T12:52:45.024Z,11.00
2022-11-26T12:55:22.335Z,10.90
2022-11-26T12:57:56.499Z,10.40
2022-11-26T13:00:35.743Z,10.40
2022-11-26T13:03:06.999Z,10.50
2022-11-26T13:05:51.090Z,10.40
2022-11-26T13:08:41.539Z,10.00
2022-11-26T13:11:32.868Z,10.80
2022-11-26T13:14:17.234Z,10.40
2022-11-26T13:16:56.023Z,10.60
2022-11-26T13:19:35.824Z,10.40
2022-11-26T13:22:41.133Z,11.00
2022-11-26T13:25:57.743Z,11.00
2022-11-26T13:28:48.064Z,10.50
2022-11-26T13:31:44.255Z,10.40
2022-11-26T13:34:32.978Z,10.30
2022-11-26T13:37:43.619Z,10.30
2022-11-26T13:41:07.796Z,10.20
2022-11-26T13:44:35.481Z,9.70
2022-11-26T13:47:13.780Z,10.00
2022-11-26T13:49:48.737Z,10.00
2022-11-26T13:52:27.799Z,9.60
2022-11-26T13:55:02.016Z,9.60
2022-11-26T13:57:40.682Z,10.10
2022-11-26T14:00:11.210Z,10.00
2022-11-26T14:02:44.514Z,10.40
2022-11-26T14:05:15.595Z,10.40
2022-11-26T14:07:46.190Z,10.30
2022-11-26T14:10:44.294Z,10.20
2022-11-26T14:13:15.952Z,10.20
2022-11-26T14:16:02.617Z,10.00
2022-11-26T14:19:08.992Z,10.00
2022-11-26T14:22:00.375Z,10.00
2022-11-26T14:24:56.267Z,10.20
2022-11-26T14:27:27.033Z,9.90
2022-11-26T14:30:00.825Z,9.90
2022-11-26T14:32:35.758Z,9.60
2022-11-26T14:35:19.283Z,9.60
2022-11-26T14:37:55.303Z,9.50
2022-11-26T14:40:27.689Z,9.40
2022-11-26T14:43:17.423Z,9.30
2022-11-26T14:45:49.207Z,9.10
2022-11-26T14:48:27.021Z,8.90
2022-11-26T14:51:01.360Z,9.20
2022-11-26T14:53:33.294Z,9.50
2022-11-26T14:56:02.564Z,9.50
2022-11-26T14:58:37.407Z,9.70
2022-11-26T15:01:22.826Z,9.50
2022-11-26T15:04:02.806Z,9.90
2022-11-26T15:06:38.824Z,10.30
2022-11-26T15:09:15.448Z,9.90
2022-11-26T15:11:49.410Z,10.00
2022-11-26T15:14:29.772Z,9.80
2022-11-26T15:17:02.378Z,9.80
2022-11-26T15:19:37.245Z,9.70
2022-11-26T15:22:18.619Z,9.70
2022-11-26T15:24:51.203Z,10.00
2022-11-26T15:27:40.810Z,9.90
2022-11-26T15:30:22.717Z,9.60
2022-11-26T15:32:59.325Z,9.50
2022-11-26T15:35:28.208Z,9.80
2022-11-26T15:37:58.699Z,9.80
2022-11-26T15:40:32.538Z,9.70
2022-11-26T15:43:05.084Z,9.90
2022-11-26T15:45:41.332Z,10.00
2022-11-26T15:48:28.047Z,10.30
2022-11-26T15:51:01.992Z,10.30
2022-11-26T15:53:36.074Z,9.50
2022-11-26T15:56:06.188Z,9.80
2022-11-26T15:58:39.232Z,9.70
2022-11-26T16:01:17.825Z,9.20
2022-11-26T16:03:49.299Z,9.20
2022-11-26T16:06:32.535Z,9.40
2022-11-26T16:09:27.522Z,9.30
2022-11-26T16:12:01.637Z,9.10
2022-11-26T16:14:36.068Z,8.80
2022-11-26T16:17:11.256Z,9.40
2022-11-26T16:19:49.020Z,9.70
2022-11-26T16:22:24.181Z,9.50
2022-11-26T16:25:06.998Z,9.60
2022-11-26T16:27:35.739Z,10.10
2022-11-26T16:30:15.948Z,10.10
2022-11-26T16:32:44.105Z,10.00
2022-11-26T16:35:37.487Z,10.50
2022-11-26T16:38:00.796Z,9.90
2022-11-26T16:40:31.916Z,10.20
2022-11-26T16:43:00.166Z,10.30
2022-11-26T16:45:28.442Z,10.30
2022-11-26T16:47:57.510Z,10.10
2022-11-26T16:50:28.408Z,10.00
2022-11-26T16:52:57.471Z,10.60
2022-11-26T16:55:29.135Z,10.20
2022-11-26T16:58:02.278Z,10.40
2022-11-26T17:00:31.079Z,10.50
2022-11-26T17:02:59.521Z,10.60
2022-11-26T17:05:27.856Z,10.50
2022-11-26T17:08:01.082Z,9.80
2022-11-26T17:10:31.158Z,9.40
2022-11-26T17:12:59.528Z,9.80
2022-11-26T17:15:27.687Z,9.90
2022-11-26T17:18:02.917Z,9.90
2022-11-26T17:20:31.034Z,10.00
2022-11-26T17:22:59.226Z,9.60
2022-11-26T17:25:27.457Z,9.70
2022-11-26T17:27:57.002Z,9.30
2022-11-26T17:30:26.010Z,9.30
2022-11-26T17:32:54.179Z,9.40
2022-11-26T17:35:22.432Z,10.00
2022-11-26T17:37:50.691Z,10.10
2022-11-26T17:40:21.586Z,9.70
2022-11-26T17:42:50.637Z,9.80
2022-11-26T17:45:20.848Z,9.90
2022-11-26T17:47:49.409Z,10.00
2022-11-26T17:50:22.420Z,10.50
2022-11-26T17:52:51.417Z,10.00
2022-11-26T17:55:20.376Z,10.10
2022-11-26T17:57:48.638Z,9.90
2022-11-26T18:00:22.236Z,9.90
2022-11-26T18:02:50.496Z,10.40
2022-11-26T18:05:19.279Z,10.00
2022-11-26T18:07:48.701Z,10.10
2022-11-26T18:10:19.933Z,10.70
2022-11-26T18:12:48.835Z,10.40
2022-11-26T18:15:22.490Z,9.70
2022-11-26T18:17:53.349Z,10.10
2022-11-26T18:20:25.055Z,10.30
2022-11-26T18:22:55.077Z,10.40
2022-11-26T18:25:24.091Z,10.80
2022-11-26T18:27:53.790Z,10.00
2022-11-26T18:30:24.846Z,10.00
2022-11-26T18:32:53.288Z,10.00
2022-11-26T18:35:22.810Z,10.50
2022-11-26T18:37:51.141Z,10.70
2022-11-26T18:40:19.689Z,9.70
2022-11-26T18:42:53.186Z,10.30
2022-11-26T18:45:22.804Z,9.80
2022-11-26T18:47:50.930Z,9.70
2022-11-26T18:50:19.766Z,9.30
2022-11-26T18:52:48.511Z,9.40
2022-11-26T18:55:16.832Z,10.10
2022-11-26T18:57:44.995Z,9.90
2022-11-26T19:00:15.479Z,9.80
2022-11-26T19:02:45.029Z,10.10
2022-11-26T19:05:13.291Z,9.90
2022-11-26T19:07:41.570Z,9.60
2022-11-26T19:10:11.708Z,10.10
2022-11-26T19:12:40.497Z,9.70
2022-11-26T19:15:09.468Z,9.40
2022-11-26T19:17:37.618Z,9.80
2022-11-26T19:20:09.192Z,9.70
2022-11-26T19:22:37.987Z,9.80
2022-11-26T19:25:07.030Z,9.70
2022-11-26T19:27:35.851Z,10.20
2022-11-26T19:30:04.420Z,10.10
2022-11-26T19:32:32.532Z,9.50
2022-11-26T19:35:05.590Z,9.70
2022-11-26T19:37:35.650Z,9.50
2022-11-26T19:40:04.267Z,9.30
2022-11-26T19:42:32.699Z,9.40
2022-11-26T19:45:00.932Z,9.50
2022-11-26T19:47:29.081Z,9.50
2022-11-26T19:49:57.542Z,9.80
2022-11-26T19:52:25.728Z,9.70
2022-11-26T19:54:55.192Z,9.70
2022-11-26T19:57:23.307Z,9.60
2022-11-26T19:59:52.579Z,9.80
2022-11-26T20:02:20.811Z,9.50
2022-11-26T20:04:49.009Z,9.50
2022-11-26T20:07:17.235Z,9.40
2022-11-26T20:09:45.416Z,9.70
2022-11-26T20:12:14.925Z,9.20
2022-11-26T20:14:43.054Z,9.40
2022-11-26T20:17:11.639Z,9.70
2022-11-26T20:19:41.754Z,9.90
2022-11-26T20:22:10.429Z,9.70
2022-11-26T20:24:38.904Z,9.90
2022-11-26T20:27:07.346Z,9.80
2022-11-26T20:29:37.348Z,9.60
2022-11-26T20:32:05.954Z,9.90
2022-11-26T20:34:34.606Z,9.70
2022-11-26T20:37:03.750Z,9.80
2022-11-26T20:39:31.917Z,9.70
2022-11-26T20:42:00.092Z,9.70
2022-11-26T20:44:28.555Z,10.10
2022-11-26T20:46:58.075Z,9.70
2022-11-26T20:49:30.807Z,9.70
2022-11-26T20:52:01.758Z,9.60
2022-11-26T20:54:30.063Z,9.70
2022-11-26T20:56:58.525Z,9.90
2022-11-26T20:59:27.163Z,10.40
2022-11-26T21:01:55.363Z,9.90
2022-11-26T21:04:25.043Z,10.60
2022-11-26T21:06:53.206Z,10.10
2022-11-26T21:09:21.323Z,9.90
2022-11-26T21:11:49.424Z,9.70
2022-11-26T21:14:17.598Z,10.00
2022-11-26T21:16:46.355Z,10.10
2022-11-26T21:19:14.638Z,10.10
2022-11-26T21:21:44.335Z,10.20
2022-11-26T21:24:13.158Z,9.50
2022-11-26T21:26:41.292Z,9.70
2022-11-26T21:29:09.461Z,9.60
2022-11-26T21:31:38.180Z,9.70
2022-11-26T21:34:08.802Z,9.60
2022-11-26T21:36:38.323Z,9.40
2022-11-26T21:39:07.793Z,9.50
2022-11-26T21:41:37.255Z,9.40
2022-11-26T21:44:05.960Z,9.40
2022-11-26T21:46:38.520Z,9.10
2022-11-26T21:49:08.456Z,9.10
2022-11-26T21:51:36.621Z,9.20
2022-11-26T21:54:05.080Z,9.20
2022-11-26T21:56:34.666Z,9.20
2022-11-26T21:59:03.225Z,9.50
